createdAt,value
2023-01-21T00:00:15.529Z,66.70
2023-01-21T00:02:42.835Z,46.07
2023-01-21T00:05:10.239Z,54.90
2023-01-21T00:07:36.970Z,57.00
2023-01-21T00:10:03.994Z,53.37
2023-01-21T00:12:30.667Z,53.60
2023-01-21T00:14:57.428Z,63.07
2023-01-21T00:17:24.273Z,56.53
2023-01-21T00:19:51.045Z,54.27
2023-01-21T00:22:17.911Z,56.20
2023-01-21T00:24:44.640Z,54.87
2023-01-21T00:27:11.371Z,61.57
2023-01-21T00:29:38.063Z,65.60
2023-01-21T00:32:04.825Z,58.47
2023-01-21T00:34:31.563Z,38.23
2023-01-21T00:36:58.262Z,63.70
2023-01-21T00:39:25.124Z,56.40
2023-01-21T00:41:52.457Z,49.30
2023-01-21T00:44:19.717Z,49.57
2023-01-21T00:46:46.434Z,59.73
2023-01-21T00:49:13.208Z,58.70
2023-01-21T00:51:39.888Z,45.33
2023-01-21T00:54:06.599Z,54.73
2023-01-21T00:56:33.356Z,45.83
2023-01-21T00:59:00.488Z,36.63
2023-01-21T01:01:29.877Z,51.73
2023-01-21T01:03:56.573Z,48.53
2023-01-21T01:06:24.589Z,44.33
2023-01-21T01:08:52.153Z,44.97
2023-01-21T01:11:21.759Z,48.93
2023-01-21T01:13:48.552Z,31.93
2023-01-21T01:16:16.606Z,36.30
2023-01-21T01:18:43.943Z,31.73
2023-01-21T01:21:13.281Z,35.00
2023-01-21T01:26:11.418Z,37.47
2023-01-21T01:28:38.542Z,42.77
2023-01-21T01:31:07.909Z,36.20
2023-01-21T01:33:35.511Z,35.03
2023-01-21T01:36:04.108Z,36.57
2023-01-21T01:38:31.260Z,43.93
2023-01-21T01:40:58.367Z,46.30
2023-01-21T01:43:27.798Z,41.40
2023-01-21T01:45:54.990Z,44.37
2023-01-21T01:48:31.436Z,43.90
2023-01-21T01:51:01.781Z,38.53
2023-01-21T01:53:37.433Z,37.53
2023-01-21T01:56:04.834Z,30.30
2023-01-21T01:58:32.620Z,38.00
2023-01-21T02:01:00.188Z,31.80
2023-01-21T02:06:10.172Z,32.27
2023-01-21T02:08:37.096Z,37.33
2023-01-21T02:11:11.181Z,36.23
2023-01-21T02:13:38.163Z,29.73
2023-01-21T02:16:27.572Z,31.70
2023-01-21T02:19:30.756Z,31.17
2023-01-21T02:22:23.568Z,35.80
2023-01-21T02:25:36.411Z,39.50
2023-01-21T02:28:33.948Z,28.73
2023-01-21T02:31:06.683Z,37.80
2023-01-21T02:33:42.459Z,37.60
2023-01-21T02:36:29.149Z,38.57
2023-01-21T02:39:17.797Z,42.53
2023-01-21T02:42:02.160Z,38.27
2023-01-21T02:44:36.739Z,37.00
2023-01-21T02:47:25.719Z,48.93
2023-01-21T02:50:03.727Z,42.33
2023-01-21T02:52:30.877Z,39.10
2023-01-21T02:55:00.268Z,43.20
2023-01-21T02:57:41.559Z,40.17
2023-01-21T03:00:22.859Z,40.23
2023-01-21T03:03:11.278Z,41.40
2023-01-21T03:05:41.447Z,35.83
2023-01-21T03:08:34.380Z,43.47
2023-01-21T03:11:14.634Z,40.10
2023-01-21T03:14:01.236Z,35.67
2023-01-21T03:16:42.401Z,37.20
2023-01-21T03:19:15.005Z,41.17
2023-01-21T03:21:42.467Z,39.87
2023-01-21T03:24:14.462Z,40.73
2023-01-21T03:26:42.417Z,41.33
2023-01-21T03:29:18.011Z,37.57
2023-01-21T03:31:48.036Z,37.37
2023-01-21T03:34:17.345Z,36.10
2023-01-21T03:36:49.278Z,36.97
2023-01-21T03:39:42.853Z,37.80
2023-01-21T03:42:10.614Z,37.50
2023-01-21T03:44:42.452Z,32.40
2023-01-21T03:47:25.469Z,44.57
2023-01-21T03:50:25.682Z,41.90
2023-01-21T03:52:52.817Z,38.27
2023-01-21T03:55:19.746Z,38.23
2023-01-21T03:57:46.440Z,40.53
2023-01-21T04:00:13.668Z,37.13
2023-01-21T04:05:07.160Z,41.23
2023-01-21T04:07:33.895Z,38.13
2023-01-21T04:10:00.565Z,40.63
2023-01-21T04:12:27.336Z,45.27
2023-01-21T04:14:54.318Z,47.77
2023-01-21T04:17:21.228Z,48.03
2023-01-21T04:19:47.902Z,34.37
2023-01-21T04:22:14.579Z,39.20
2023-01-21T04:27:06.788Z,40.77
2023-01-21T04:29:33.472Z,44.67
2023-01-21T04:32:00.221Z,44.70
2023-01-21T04:34:26.907Z,46.30
2023-01-21T04:36:53.624Z,45.17
2023-01-21T04:39:20.288Z,44.30
2023-01-21T04:41:47.060Z,48.60
2023-01-21T04:44:14.184Z,45.17
2023-01-21T04:49:07.425Z,51.03
2023-01-21T04:51:34.091Z,45.27
2023-01-21T04:54:00.847Z,44.73
2023-01-21T04:56:27.572Z,47.93
2023-01-21T04:58:54.319Z,46.57
2023-01-21T05:01:21.172Z,48.77
2023-01-21T05:03:47.973Z,41.23
2023-01-21T05:06:14.984Z,42.43
2023-01-21T05:08:42.604Z,48.43
2023-01-21T05:11:09.861Z,50.17
2023-01-21T05:13:39.719Z,40.83
2023-01-21T05:16:10.106Z,43.77
2023-01-21T05:21:08.016Z,47.67
2023-01-21T05:23:34.919Z,42.13
2023-01-21T05:26:02.102Z,43.87
2023-01-21T05:28:28.809Z,42.67
2023-01-21T05:30:59.513Z,52.73
2023-01-21T05:33:33.690Z,57.23
2023-01-21T05:36:02.070Z,46.47
2023-01-21T05:38:29.437Z,46.77
2023-01-21T05:40:58.000Z,51.53
2023-01-21T05:43:24.825Z,42.00
2023-01-21T05:45:52.150Z,52.17
2023-01-21T05:48:19.090Z,46.97
2023-01-21T05:50:46.088Z,51.97
2023-01-21T05:53:16.075Z,49.43
2023-01-21T05:55:43.131Z,45.13
2023-01-21T05:58:12.321Z,44.23
2023-01-21T06:00:39.061Z,44.87
2023-01-21T06:03:05.746Z,51.57
2023-01-21T06:05:37.178Z,45.10
2023-01-21T06:08:04.007Z,50.00
2023-01-21T06:10:30.656Z,45.13
2023-01-21T06:12:57.402Z,43.37
2023-01-21T06:15:28.015Z,47.47
2023-01-21T06:17:55.209Z,45.20
2023-01-21T06:20:22.348Z,45.10
2023-01-21T06:22:49.084Z,47.30
2023-01-21T06:25:15.987Z,51.23
2023-01-21T06:27:42.683Z,48.77
2023-01-21T06:30:10.836Z,49.80
2023-01-21T06:32:38.042Z,44.23
2023-01-21T06:35:05.231Z,54.03
2023-01-21T06:37:32.091Z,47.33
2023-01-21T06:39:58.780Z,45.80
2023-01-21T06:42:28.399Z,41.07
2023-01-21T06:44:55.148Z,49.30
2023-01-21T06:47:21.909Z,47.23
2023-01-21T06:49:48.874Z,46.80
2023-01-21T06:52:22.966Z,44.80
2023-01-21T06:54:51.821Z,50.27
2023-01-21T06:57:22.111Z,54.80
2023-01-21T06:59:51.469Z,50.47
2023-01-21T07:02:24.718Z,51.27
2023-01-21T07:04:51.637Z,48.50
2023-01-21T07:07:18.797Z,40.00
2023-01-21T07:09:45.518Z,43.43
2023-01-21T07:12:15.912Z,41.97
2023-01-21T07:14:43.101Z,57.03
2023-01-21T07:17:21.663Z,46.80
2023-01-21T07:19:48.469Z,46.07
2023-01-21T07:22:15.540Z,52.40
2023-01-21T07:24:42.353Z,47.73
2023-01-21T07:27:11.415Z,45.60
2023-01-21T07:29:38.826Z,55.47
2023-01-21T07:32:05.812Z,46.17
2023-01-21T07:34:32.891Z,51.93
2023-01-21T07:36:59.723Z,44.37
2023-01-21T07:39:26.815Z,44.97
2023-01-21T07:41:53.932Z,46.30
2023-01-21T07:44:20.795Z,40.87
2023-01-21T07:46:47.550Z,49.50
2023-01-21T07:49:17.842Z,40.93
2023-01-21T07:51:48.317Z,49.60
2023-01-21T07:54:15.881Z,52.77
2023-01-21T07:56:45.750Z,39.80
2023-01-21T07:59:13.606Z,47.93
2023-01-21T08:04:09.989Z,38.43
2023-01-21T08:09:07.620Z,42.60
2023-01-21T08:11:34.339Z,36.20
2023-01-21T08:14:01.252Z,36.83
2023-01-21T08:16:27.963Z,40.50
2023-01-21T08:18:54.814Z,42.83
2023-01-21T08:21:21.960Z,41.00
2023-01-21T08:23:51.737Z,45.07
2023-01-21T08:26:19.464Z,37.63
2023-01-21T08:28:57.483Z,41.63
2023-01-21T08:31:24.527Z,41.63
2023-01-21T08:33:54.737Z,35.07
2023-01-21T08:36:22.555Z,37.93
2023-01-21T08:38:59.029Z,39.57
2023-01-21T08:41:25.865Z,38.93
2023-01-21T08:43:53.295Z,42.53
2023-01-21T08:46:20.008Z,36.57
2023-01-21T08:48:46.698Z,38.90
2023-01-21T08:51:13.593Z,35.90
2023-01-21T08:53:42.773Z,33.43
2023-01-21T08:56:14.695Z,36.37
2023-01-21T08:58:42.620Z,35.33
2023-01-21T09:01:11.166Z,32.20
2023-01-21T09:03:38.733Z,35.03
2023-01-21T09:06:11.275Z,29.83
2023-01-21T09:08:38.104Z,39.47
2023-01-21T09:11:07.177Z,34.43
2023-01-21T09:13:38.614Z,31.27
2023-01-21T09:16:16.782Z,30.10
2023-01-21T09:18:47.656Z,30.87
2023-01-21T09:21:14.844Z,31.10
2023-01-21T09:23:42.549Z,28.00
2023-01-21T09:26:17.719Z,28.97
2023-01-21T09:28:47.694Z,28.00
2023-01-21T09:31:16.984Z,25.00
2023-01-21T09:33:45.729Z,29.60
2023-01-21T09:36:19.189Z,26.70
2023-01-21T09:38:47.392Z,28.63
2023-01-21T09:41:49.505Z,31.00
2023-01-21T09:44:43.096Z,35.73
2023-01-21T09:47:29.523Z,34.60
2023-01-21T09:50:05.388Z,29.60
2023-01-21T09:52:43.493Z,30.03
2023-01-21T09:55:20.122Z,30.00
2023-01-21T09:58:05.281Z,29.07
2023-01-21T10:00:42.606Z,30.70
2023-01-21T10:03:09.342Z,29.97
2023-01-21T10:05:38.971Z,28.77
2023-01-21T10:08:27.060Z,30.30
2023-01-21T10:11:00.166Z,28.77
2023-01-21T10:13:42.951Z,27.13
2023-01-21T10:16:28.658Z,32.53
2023-01-21T10:18:58.535Z,31.53
2023-01-21T10:21:41.673Z,36.40
2023-01-21T10:24:15.420Z,33.97
2023-01-21T10:26:45.719Z,35.10
2023-01-21T10:29:21.496Z,27.67
2023-01-21T10:32:04.578Z,29.50
2023-01-21T10:34:37.996Z,32.67
2023-01-21T10:37:44.634Z,38.10
2023-01-21T10:40:19.241Z,30.00
2023-01-21T10:43:31.207Z,33.27
2023-01-21T10:46:15.469Z,37.60
2023-01-21T10:49:03.758Z,34.93
2023-01-21T10:51:42.647Z,29.13
2023-01-21T10:54:24.409Z,26.57
2023-01-21T10:57:04.125Z,28.67
2023-01-21T10:59:33.711Z,29.93
2023-01-21T11:02:10.195Z,29.00
2023-01-21T11:04:39.882Z,28.40
2023-01-21T11:07:12.168Z,28.53
2023-01-21T11:09:42.723Z,29.10
2023-01-21T11:12:13.269Z,26.37
2023-01-21T11:14:40.085Z,22.25
2023-01-21T11:17:07.658Z,25.83
2023-01-21T11:19:34.602Z,25.37
2023-01-21T11:22:05.183Z,18.90
2023-01-21T11:27:07.096Z,26.10
2023-01-21T11:29:41.702Z,22.27
2023-01-21T11:32:18.556Z,24.17
2023-01-21T11:34:53.481Z,25.08
2023-01-21T11:37:24.962Z,25.43
2023-01-21T11:40:03.932Z,22.13
2023-01-21T11:42:30.906Z,21.02
2023-01-21T11:45:30.344Z,27.88
2023-01-21T11:47:59.930Z,19.55
2023-01-21T11:50:35.380Z,23.73
2023-01-21T11:53:11.978Z,24.10
2023-01-21T11:55:42.660Z,23.17
2023-01-21T11:58:38.665Z,22.95
2023-01-21T12:01:22.235Z,24.80
2023-01-21T12:03:53.471Z,27.52
2023-01-21T12:06:24.214Z,27.10
2023-01-21T12:08:55.747Z,22.08
2023-01-21T12:11:26.705Z,19.38
2023-01-21T12:14:11.729Z,19.65
2023-01-21T12:16:42.749Z,20.13
2023-01-21T12:19:31.667Z,21.10
2023-01-21T12:22:33.037Z,25.00
2023-01-21T12:25:06.766Z,20.30
2023-01-21T12:27:42.721Z,22.73
2023-01-21T12:30:28.610Z,21.40
2023-01-21T12:33:01.802Z,19.17
2023-01-21T12:35:41.979Z,17.87
2023-01-21T12:38:18.150Z,18.40
2023-01-21T12:41:05.140Z,19.38
2023-01-21T12:43:43.384Z,16.17
2023-01-21T12:46:24.090Z,16.50
2023-01-21T12:49:02.258Z,20.75
2023-01-21T12:54:36.471Z,21.77
2023-01-21T12:57:25.907Z,16.00
2023-01-21T13:00:04.032Z,16.33
2023-01-21T13:02:45.335Z,15.15
2023-01-21T13:05:23.471Z,12.82
2023-01-21T13:07:59.433Z,18.58
2023-01-21T13:10:39.721Z,16.13
2023-01-21T13:13:20.203Z,17.77
2023-01-21T13:15:52.880Z,14.13
2023-01-21T13:18:34.690Z,15.40
2023-01-21T13:21:18.983Z,20.70
2023-01-21T13:23:50.959Z,15.88
2023-01-21T13:26:18.118Z,15.05
2023-01-21T13:29:12.953Z,22.98
2023-01-21T13:31:42.762Z,20.90
2023-01-21T13:34:30.257Z,18.85
2023-01-21T13:37:07.803Z,16.85
2023-01-21T13:39:42.788Z,17.15
2023-01-21T13:42:45.385Z,21.00
2023-01-21T13:48:25.971Z,15.07
2023-01-21T13:51:27.270Z,16.00
2023-01-21T13:54:03.963Z,16.77
2023-01-21T13:56:33.662Z,17.85
2023-01-21T13:59:24.812Z,17.77
2023-01-21T14:01:59.481Z,14.30
2023-01-21T14:07:22.828Z,16.90
2023-01-21T14:10:19.444Z,14.10
2023-01-21T14:13:11.955Z,15.35
2023-01-21T14:15:41.787Z,14.77
2023-01-21T14:18:42.956Z,16.08
2023-01-21T14:21:30.644Z,14.38
2023-01-21T14:24:17.482Z,13.80
2023-01-21T14:26:57.214Z,16.40
2023-01-21T14:29:35.428Z,14.13
2023-01-21T14:32:06.345Z,14.07
2023-01-21T14:34:43.388Z,13.80
2023-01-21T14:37:19.028Z,14.85
2023-01-21T14:40:16.068Z,11.07
2023-01-21T14:42:51.459Z,13.85
2023-01-21T14:45:25.868Z,13.20
2023-01-21T14:47:58.291Z,10.98
2023-01-21T14:50:42.952Z,16.30
2023-01-21T14:53:23.709Z,14.38
2023-01-21T14:59:03.197Z,11.45
2023-01-21T15:01:42.816Z,15.77
2023-01-21T15:07:19.552Z,11.60
2023-01-21T15:09:59.160Z,13.13
2023-01-21T15:12:31.558Z,12.88
2023-01-21T15:15:05.118Z,15.23
2023-01-21T15:17:42.830Z,16.23
2023-01-21T15:20:44.557Z,15.18
2023-01-21T15:23:21.428Z,16.37
2023-01-21T15:26:11.839Z,23.43
2023-01-21T15:31:11.350Z,16.20
2023-01-21T15:33:43.187Z,16.77
2023-01-21T15:36:24.456Z,13.90
2023-01-21T15:38:55.597Z,13.75
2023-01-21T15:41:26.236Z,15.40
2023-01-21T15:44:19.268Z,15.68
2023-01-21T15:46:54.936Z,14.10
2023-01-21T15:49:42.844Z,15.38
2023-01-21T15:55:22.716Z,13.53
2023-01-21T15:58:15.334Z,14.80
2023-01-21T16:00:41.844Z,20.27
2023-01-21T16:03:17.879Z,16.08
2023-01-21T16:06:06.334Z,13.85
2023-01-21T16:08:42.822Z,14.63
2023-01-21T16:11:26.251Z,17.87
2023-01-21T16:14:14.128Z,16.97
2023-01-21T16:16:41.852Z,18.35
2023-01-21T16:19:16.032Z,17.40
2023-01-21T16:21:46.969Z,15.73
2023-01-21T16:24:20.048Z,16.87
2023-01-21T16:26:46.813Z,13.90
2023-01-21T16:29:17.638Z,15.03
2023-01-21T16:32:04.360Z,14.10
2023-01-21T16:34:31.305Z,20.65
2023-01-21T16:37:10.670Z,20.43
2023-01-21T16:39:43.436Z,20.23
2023-01-21T16:42:32.583Z,41.83
2023-01-21T16:45:00.004Z,79.20
2023-01-21T16:47:35.943Z,44.33
2023-01-21T16:50:05.812Z,20.92
2023-01-21T16:52:33.796Z,23.08
2023-01-21T16:55:19.547Z,18.15
2023-01-21T16:57:51.377Z,18.38
2023-01-21T17:00:30.347Z,14.20
2023-01-21T17:03:00.566Z,15.60
2023-01-21T17:05:34.697Z,18.30
2023-01-21T17:08:11.178Z,15.87
2023-01-21T17:10:42.851Z,17.08
2023-01-21T17:13:16.233Z,13.95
2023-01-21T17:15:58.463Z,15.00
2023-01-21T17:18:39.152Z,17.10
2023-01-21T17:21:10.658Z,16.63
2023-01-21T17:23:43.313Z,16.17
2023-01-21T17:26:24.718Z,16.00
2023-01-21T17:28:59.987Z,14.75
2023-01-21T17:34:21.386Z,16.10
2023-01-21T17:36:50.948Z,17.93
2023-01-21T17:39:43.149Z,16.07
2023-01-21T17:42:18.478Z,18.43
2023-01-21T17:44:55.023Z,25.42
2023-01-21T17:47:25.420Z,22.08
2023-01-21T17:50:13.178Z,21.13
2023-01-21T17:52:40.032Z,22.45
2023-01-21T17:55:39.451Z,20.55
2023-01-21T17:58:32.128Z,20.17
2023-01-21T18:01:02.829Z,17.55
2023-01-21T18:03:33.453Z,18.23
2023-01-21T18:06:01.274Z,18.00
2023-01-21T18:08:30.949Z,16.80
2023-01-21T18:10:58.293Z,18.60
2023-01-21T18:13:25.114Z,23.48
2023-01-21T18:15:54.465Z,20.53
2023-01-21T18:18:25.562Z,10.23
2023-01-21T18:20:52.438Z,19.30
2023-01-21T18:23:20.303Z,17.25
2023-01-21T18:25:49.165Z,18.10
2023-01-21T18:28:24.734Z,20.07
2023-01-21T18:30:54.207Z,22.97
2023-01-21T18:33:21.451Z,22.73
2023-01-21T18:35:49.850Z,24.05
2023-01-21T18:38:27.071Z,32.33
2023-01-21T18:40:55.966Z,22.75
2023-01-21T18:43:23.742Z,19.30
2023-01-21T18:45:52.656Z,23.73
2023-01-21T18:48:27.620Z,21.43
2023-01-21T18:50:54.694Z,23.77
2023-01-21T18:53:21.572Z,18.80
2023-01-21T18:55:51.132Z,24.40
2023-01-21T18:58:18.000Z,25.48
2023-01-21T19:00:44.735Z,26.80
2023-01-21T19:03:14.071Z,23.23
2023-01-21T19:05:42.863Z,21.85
2023-01-21T19:08:16.717Z,21.17
2023-01-21T19:10:43.684Z,22.27
2023-01-21T19:13:11.675Z,18.53
2023-01-21T19:15:39.304Z,23.03
2023-01-21T19:18:16.651Z,28.35
2023-01-21T19:20:46.140Z,23.60
2023-01-21T19:23:17.940Z,21.10
2023-01-21T19:25:55.567Z,23.60
2023-01-21T19:28:23.703Z,23.90
2023-01-21T19:30:58.077Z,22.10
2023-01-21T19:33:28.527Z,25.80
2023-01-21T19:36:01.993Z,20.63
2023-01-21T19:38:28.771Z,22.93
2023-01-21T19:40:55.961Z,23.33
2023-01-21T19:43:22.857Z,26.83
2023-01-21T19:45:54.369Z,23.87
2023-01-21T19:48:22.178Z,23.47
2023-01-21T19:50:49.697Z,25.93
2023-01-21T19:53:18.551Z,25.87
2023-01-21T19:55:46.706Z,27.50
2023-01-21T19:58:20.012Z,26.30
2023-01-21T20:00:49.368Z,27.87
2023-01-21T20:03:18.897Z,16.30
2023-01-21T20:05:49.944Z,19.93
2023-01-21T20:08:20.575Z,24.03
2023-01-21T20:10:47.761Z,22.70
2023-01-21T20:13:15.812Z,28.00
2023-01-21T20:15:44.889Z,28.53
2023-01-21T20:18:19.280Z,23.50
2023-01-21T20:20:45.938Z,23.87
2023-01-21T20:23:15.959Z,24.00
2023-01-21T20:25:44.197Z,23.47
2023-01-21T20:28:20.954Z,26.27
2023-01-21T20:30:53.938Z,22.40
2023-01-21T20:33:23.119Z,27.83
2023-01-21T20:35:52.988Z,31.73
2023-01-21T20:38:37.330Z,29.53
2023-01-21T20:41:05.754Z,26.80
2023-01-21T20:43:35.456Z,29.90
2023-01-21T20:46:05.579Z,33.97
2023-01-21T20:48:38.978Z,25.17
2023-01-21T20:51:06.202Z,26.03
2023-01-21T20:53:33.304Z,30.43
2023-01-21T20:56:15.533Z,30.73
2023-01-21T20:58:45.098Z,28.83
2023-01-21T21:03:59.145Z,29.13
2023-01-21T21:06:29.475Z,27.97
2023-01-21T21:08:56.271Z,32.47
2023-01-21T21:11:23.221Z,26.00
2023-01-21T21:13:52.573Z,33.00
2023-01-21T21:16:22.192Z,27.13
2023-01-21T21:18:49.471Z,30.80
2023-01-21T21:21:18.018Z,34.87
2023-01-21T21:23:46.807Z,32.40
2023-01-21T21:26:22.376Z,28.63
2023-01-21T21:28:49.809Z,30.03
2023-01-21T21:31:18.056Z,30.00
2023-01-21T21:33:45.067Z,30.33
2023-01-21T21:36:28.234Z,29.63
2023-01-21T21:39:01.186Z,29.03
2023-01-21T21:41:47.402Z,35.07
2023-01-21T21:44:14.126Z,35.83
2023-01-21T21:46:43.214Z,30.97
2023-01-21T21:49:10.186Z,32.47
2023-01-21T21:51:38.198Z,36.40
2023-01-21T21:54:07.959Z,29.70
2023-01-21T21:56:36.044Z,31.50
2023-01-21T21:59:03.316Z,33.00
2023-01-21T22:01:35.114Z,31.40
2023-01-21T22:04:03.073Z,34.20
2023-01-21T22:06:30.338Z,29.92
2023-01-21T22:08:58.926Z,26.85
2023-01-21T22:11:26.789Z,36.63
2023-01-21T22:13:58.369Z,23.55
2023-01-21T22:16:27.721Z,31.23
2023-01-21T22:18:56.752Z,28.43
2023-01-21T22:21:26.948Z,24.60
2023-01-21T22:23:54.726Z,26.05
2023-01-21T22:26:24.191Z,25.25
2023-01-21T22:28:53.977Z,31.00
2023-01-21T22:31:26.346Z,31.40
2023-01-21T22:33:53.801Z,32.17
2023-01-21T22:36:22.728Z,33.43
2023-01-21T22:38:50.120Z,25.80
2023-01-21T22:41:20.191Z,32.57
2023-01-21T22:43:48.663Z,30.33
2023-01-21T22:46:27.366Z,35.07
2023-01-21T22:48:54.843Z,30.43
2023-01-21T22:51:23.376Z,30.87
2023-01-21T22:53:50.993Z,31.83
2023-01-21T22:56:19.729Z,29.98
2023-01-21T22:58:46.643Z,32.27
2023-01-21T23:01:31.498Z,32.73
2023-01-21T23:03:59.834Z,27.80
2023-01-21T23:06:26.887Z,28.67
2023-01-21T23:08:53.661Z,28.80
2023-01-21T23:11:21.451Z,40.97
2023-01-21T23:13:49.882Z,27.80
2023-01-21T23:16:21.289Z,35.87
2023-01-21T23:18:48.642Z,31.73
2023-01-21T23:21:26.100Z,31.73
2023-01-21T23:23:59.794Z,33.70
2023-01-21T23:26:26.614Z,33.70
2023-01-21T23:28:57.951Z,31.47
2023-01-21T23:31:25.187Z,31.37
2023-01-21T23:33:53.552Z,31.93
2023-01-21T23:36:23.161Z,31.10
2023-01-21T23:38:49.939Z,32.70
2023-01-21T23:41:17.369Z,31.30
2023-01-21T23:43:44.560Z,24.65
2023-01-21T23:46:16.769Z,32.13
2023-01-21T23:48:43.884Z,37.10
2023-01-21T23:51:14.378Z,31.83
2023-01-21T23:56:13.602Z,35.90
2023-01-21T23:58:40.713Z,26.77
